Terminal Aerodrome Forecast
Issued by NWS

Home | Current Version | Previous Version | Text Only | Print | Product List | Glossary On
Versions: 1 2 3 4 5 6 7 8 9 10 11 12 13 14 15 16 17 18 19 20 21 22
023
FTUS46 KPDT 241730
TAFDLS
TAF
KDLS 241730Z 2418/2518 VRB04KT P6SM OVC010
     FM242100 VRB04KT P6SM OVC020
     FM250300 31006KT 6SM BR OVC015
     FM251200 07004KT 6SM BR OVC008=

USA.gov is the U.S. government's official web portal to all federal, state and local government web resources and services.